createdAt,value
2022-08-30T00:00:11.535Z,98700.00
2022-08-30T00:00:21.564Z,98700.00
2022-08-30T00:00:31.553Z,98700.00
2022-08-30T00:00:39.648Z,98700.00
2022-08-30T00:00:49.603Z,98698.00
2022-08-30T00:00:59.875Z,98698.00
2022-08-30T00:01:13.624Z,98702.00
2022-08-30T00:01:19.592Z,98696.00
2022-08-30T00:01:29.604Z,98698.00
2022-08-30T00:01:41.564Z,98698.00
2022-08-30T00:01:50.453Z,98698.00
2022-08-30T00:02:01.544Z,98700.00
2022-08-30T00:02:09.608Z,98700.00
2022-08-30T00:02:21.664Z,98702.00
2022-08-30T00:02:31.944Z,98698.00
2022-08-30T00:02:41.432Z,98696.00
2022-08-30T00:02:51.970Z,98700.00
2022-08-30T00:03:01.955Z,98698.00
2022-08-30T00:03:10.024Z,98698.00
2022-08-30T00:03:20.182Z,98700.00
2022-08-30T00:03:30.094Z,98700.00
2022-08-30T00:03:39.965Z,98698.00
2022-08-30T00:03:51.983Z,98696.00
2022-08-30T00:04:01.896Z,98698.00
2022-08-30T00:04:11.804Z,98700.00
2022-08-30T00:04:21.803Z,98700.00
2022-08-30T00:04:31.799Z,98700.00
2022-08-30T00:04:39.934Z,98694.00
2022-08-30T00:04:49.944Z,98698.00
2022-08-30T00:04:59.841Z,98698.00
2022-08-30T00:05:09.923Z,98698.00
2022-08-30T00:05:21.816Z,98698.00
2022-08-30T00:05:29.845Z,98694.00
2022-08-30T00:05:41.311Z,98700.00
2022-08-30T00:05:49.966Z,98696.00
2022-08-30T00:06:01.803Z,98694.00
2022-08-30T00:06:11.305Z,98698.00
2022-08-30T00:06:21.805Z,98694.00
2022-08-30T00:06:31.784Z,98696.00
2022-08-30T00:06:41.776Z,98694.00
2022-08-30T00:06:49.843Z,98696.00
2022-08-30T00:06:59.864Z,98696.00
2022-08-30T00:07:11.786Z,98698.00
2022-08-30T00:07:21.774Z,98698.00
2022-08-30T00:07:29.989Z,98700.00
2022-08-30T00:07:41.777Z,98698.00
2022-08-30T00:07:49.827Z,98696.00
2022-08-30T00:07:59.853Z,98696.00
2022-08-30T00:08:09.835Z,98698.00
2022-08-30T00:08:19.835Z,98700.00
2022-08-30T00:08:29.855Z,98696.00
2022-08-30T00:08:39.921Z,98698.00
2022-08-30T00:08:51.776Z,98698.00
2022-08-30T00:09:00.341Z,98698.00
2022-08-30T00:09:09.814Z,98698.00
2022-08-30T00:09:20.760Z,98692.00
2022-08-30T00:09:31.775Z,98692.00
2022-08-30T00:09:39.857Z,98694.00
2022-08-30T00:09:49.836Z,98694.00
2022-08-30T00:10:01.765Z,98694.00
2022-08-30T00:10:09.805Z,98696.00
2022-08-30T00:10:19.839Z,98696.00
2022-08-30T00:10:30.710Z,98694.00
2022-08-30T00:10:39.844Z,98694.00
2022-08-30T00:10:51.775Z,98696.00
2022-08-30T00:10:59.827Z,98694.00
2022-08-30T00:11:11.777Z,98694.00
2022-08-30T00:11:21.763Z,98694.00
2022-08-30T00:11:31.745Z,98694.00
2022-08-30T00:11:41.757Z,98694.00
2022-08-30T00:11:49.805Z,98694.00
2022-08-30T00:12:01.788Z,98696.00
2022-08-30T00:12:11.738Z,98694.00
2022-08-30T00:12:21.767Z,98696.00
2022-08-30T00:12:29.787Z,98696.00
2022-08-30T00:12:39.836Z,98694.00
2022-08-30T00:12:49.805Z,98694.00
2022-08-30T00:13:01.787Z,98694.00
2022-08-30T00:13:11.738Z,98694.00
2022-08-30T00:13:21.736Z,98696.00
2022-08-30T00:13:31.736Z,98696.00
2022-08-30T00:13:39.854Z,98692.00
2022-08-30T00:13:51.761Z,98692.00
2022-08-30T00:13:59.785Z,98694.00
2022-08-30T00:14:09.804Z,98694.00
2022-08-30T00:14:21.756Z,98692.00
2022-08-30T00:14:31.727Z,98692.00
2022-08-30T00:14:39.769Z,98692.00
2022-08-30T00:14:49.786Z,98692.00
2022-08-30T00:14:59.796Z,98690.00
2022-08-30T00:15:09.879Z,98692.00
2022-08-30T00:15:20.024Z,98692.00
2022-08-30T00:15:30.045Z,98690.00
2022-08-30T00:15:40.030Z,98692.00
2022-08-30T00:15:51.949Z,98692.00
2022-08-30T00:16:01.998Z,98692.00
2022-08-30T00:16:10.038Z,98692.00
2022-08-30T00:16:21.952Z,98692.00
2022-08-30T00:16:31.387Z,98694.00
2022-08-30T00:16:39.954Z,98692.00
2022-08-30T00:16:51.908Z,98694.00
2022-08-30T00:17:01.877Z,98694.00
2022-08-30T00:17:09.930Z,98694.00
2022-08-30T00:17:21.907Z,98694.00
2022-08-30T00:17:31.394Z,98694.00
2022-08-30T00:17:41.877Z,98694.00
2022-08-30T00:17:51.882Z,98694.00
2022-08-30T00:18:01.019Z,98696.00
2022-08-30T00:18:09.979Z,98696.00
2022-08-30T00:18:21.902Z,98696.00
2022-08-30T00:18:31.869Z,98698.00
2022-08-30T00:18:39.908Z,98692.00
2022-08-30T00:18:50.056Z,98694.00
2022-08-30T00:18:59.928Z,98692.00
2022-08-30T00:19:09.938Z,98694.00
2022-08-30T00:19:19.939Z,98696.00
2022-08-30T00:19:29.958Z,98694.00
2022-08-30T00:19:39.940Z,98694.00
2022-08-30T00:19:49.927Z,98694.00
2022-08-30T00:19:59.919Z,98694.00
2022-08-30T00:20:10.759Z,98694.00
2022-08-30T00:20:19.984Z,98694.00
2022-08-30T00:20:29.959Z,98694.00
2022-08-30T00:20:41.879Z,98694.00
2022-08-30T00:20:49.908Z,98694.00
2022-08-30T00:21:00.665Z,98692.00
2022-08-30T00:21:09.937Z,98696.00
2022-08-30T00:21:19.930Z,98694.00
2022-08-30T00:21:31.858Z,98694.00
2022-08-30T00:21:41.849Z,98696.00
2022-08-30T00:21:51.840Z,98696.00
2022-08-30T00:21:59.909Z,98696.00
2022-08-30T00:22:09.923Z,98696.00
2022-08-30T00:22:21.865Z,98696.00
2022-08-30T00:22:31.839Z,98694.00
2022-08-30T00:22:41.850Z,98696.00
2022-08-30T00:22:51.852Z,98694.00
2022-08-30T00:22:59.889Z,98696.00
2022-08-30T00:23:11.849Z,98694.00
2022-08-30T00:23:20.188Z,98696.00
2022-08-30T00:23:29.886Z,98696.00
2022-08-30T00:23:41.855Z,98696.00
2022-08-30T00:23:51.831Z,98700.00
2022-08-30T00:23:59.889Z,98698.00
2022-08-30T00:24:11.840Z,98700.00
2022-08-30T00:24:21.831Z,98698.00
2022-08-30T00:24:30.323Z,98696.00
2022-08-30T00:24:40.321Z,98702.00
2022-08-30T00:24:50.331Z,98698.00
2022-08-30T00:25:00.341Z,98698.00
2022-08-30T00:25:10.338Z,98698.00
2022-08-30T00:25:19.950Z,98700.00
2022-08-30T00:25:30.359Z,98698.00
2022-08-30T00:25:40.348Z,98698.00
2022-08-30T00:25:50.359Z,98698.00
2022-08-30T00:26:00.349Z,98700.00
2022-08-30T00:26:10.364Z,98700.00
2022-08-30T00:26:20.366Z,98698.00
2022-08-30T00:26:30.418Z,98700.00
2022-08-30T00:26:40.367Z,98702.00
2022-08-30T00:26:50.388Z,98702.00
2022-08-30T00:27:00.373Z,98700.00
2022-08-30T00:27:10.444Z,98700.00
2022-08-30T00:27:19.871Z,98702.00
2022-08-30T00:27:30.388Z,98702.00
2022-08-30T00:27:40.803Z,98704.00
2022-08-30T00:27:49.862Z,98704.00
2022-08-30T00:27:59.870Z,98702.00
2022-08-30T00:28:09.950Z,98704.00
2022-08-30T00:28:19.840Z,98704.00
2022-08-30T00:28:29.902Z,98702.00
2022-08-30T00:28:39.853Z,98704.00
2022-08-30T00:28:51.322Z,98702.00
2022-08-30T00:29:00.412Z,98704.00
2022-08-30T00:29:09.831Z,98704.00
2022-08-30T00:29:19.879Z,98704.00
2022-08-30T00:29:31.811Z,98702.00
2022-08-30T00:29:41.803Z,98706.00
2022-08-30T00:29:49.857Z,98704.00
2022-08-30T00:30:01.794Z,98702.00
2022-08-30T00:30:11.795Z,98702.00
2022-08-30T00:30:21.771Z,98700.00
2022-08-30T00:30:31.794Z,98702.00
2022-08-30T00:30:39.927Z,98700.00
2022-08-30T00:30:51.881Z,98706.00
2022-08-30T00:31:01.866Z,98702.00
2022-08-30T00:31:09.898Z,98702.00
2022-08-30T00:31:19.881Z,98706.00
2022-08-30T00:31:30.762Z,98702.00
2022-08-30T00:31:39.850Z,98702.00
2022-08-30T00:31:49.843Z,98700.00
2022-08-30T00:32:00.632Z,98702.00
2022-08-30T00:32:09.833Z,98704.00
2022-08-30T00:32:19.853Z,98700.00
2022-08-30T00:32:29.839Z,98700.00
2022-08-30T00:32:39.833Z,98702.00
2022-08-30T00:32:49.852Z,98700.00
2022-08-30T00:33:00.793Z,98702.00
2022-08-30T00:33:11.763Z,98700.00
2022-08-30T00:33:19.815Z,98700.00
2022-08-30T00:33:29.843Z,98700.00
2022-08-30T00:33:39.881Z,98696.00
2022-08-30T00:33:49.865Z,98698.00
2022-08-30T00:33:59.813Z,98700.00
2022-08-30T00:34:09.820Z,98696.00
2022-08-30T00:34:19.842Z,98696.00
2022-08-30T00:34:31.782Z,98700.00
2022-08-30T00:34:41.759Z,98698.00
2022-08-30T00:34:51.762Z,98696.00
2022-08-30T00:34:59.803Z,98696.00
2022-08-30T00:35:09.815Z,98696.00
2022-08-30T00:35:19.842Z,98698.00
2022-08-30T00:35:31.762Z,98698.00
2022-08-30T00:35:39.802Z,98696.00
2022-08-30T00:35:49.813Z,98698.00
2022-08-30T00:35:59.850Z,98696.00
2022-08-30T00:36:11.795Z,98696.00
2022-08-30T00:36:21.734Z,98696.00
2022-08-30T00:36:31.763Z,98696.00
2022-08-30T00:36:39.783Z,98696.00
2022-08-30T00:36:49.814Z,98696.00
2022-08-30T00:37:01.743Z,98692.00
2022-08-30T00:37:11.743Z,98696.00
2022-08-30T00:37:19.785Z,98694.00
2022-08-30T00:37:31.753Z,98694.00
2022-08-30T00:37:39.773Z,98692.00
2022-08-30T00:37:51.764Z,98694.00
2022-08-30T00:37:59.783Z,98692.00
2022-08-30T00:38:11.774Z,98692.00
2022-08-30T00:38:19.767Z,98694.00
2022-08-30T00:38:29.805Z,98692.00
2022-08-30T00:38:39.783Z,98692.00
2022-08-30T00:38:49.785Z,98690.00
2022-08-30T00:38:59.785Z,98690.00
2022-08-30T00:39:09.814Z,98692.00
2022-08-30T00:39:20.697Z,98690.00
2022-08-30T00:39:29.764Z,98688.00
2022-08-30T00:39:39.845Z,98688.00
2022-08-30T00:39:49.762Z,98690.00
2022-08-30T00:40:01.819Z,98688.00
2022-08-30T00:40:11.779Z,98690.00
2022-08-30T00:40:19.811Z,98690.00
2022-08-30T00:40:31.842Z,98688.00
2022-08-30T00:40:41.798Z,98690.00
2022-08-30T00:40:51.750Z,98688.00
2022-08-30T00:40:59.766Z,98688.00
2022-08-30T00:41:09.782Z,98686.00
2022-08-30T00:41:21.727Z,98688.00
2022-08-30T00:41:29.832Z,98686.00
2022-08-30T00:41:41.716Z,98686.00
2022-08-30T00:41:49.766Z,98686.00
2022-08-30T00:41:59.757Z,98688.00
2022-08-30T00:42:11.724Z,98686.00
2022-08-30T00:42:21.695Z,98686.00
2022-08-30T00:42:31.698Z,98686.00
2022-08-30T00:42:40.645Z,98686.00
2022-08-30T00:42:50.631Z,98686.00
2022-08-30T00:43:04.100Z,98688.00
2022-08-30T00:43:13.998Z,98688.00
2022-08-30T00:43:22.565Z,98686.00
2022-08-30T00:43:30.805Z,98688.00
2022-08-30T00:43:42.577Z,98688.00
2022-08-30T00:43:52.565Z,98688.00
2022-08-30T00:44:00.783Z,98686.00
2022-08-30T00:44:10.613Z,98684.00
2022-08-30T00:44:20.706Z,98684.00
2022-08-30T00:44:32.562Z,98684.00
2022-08-30T00:44:42.548Z,98686.00
2022-08-30T00:44:52.547Z,98686.00
2022-08-30T00:45:02.546Z,98686.00
2022-08-30T00:45:12.547Z,98686.00
2022-08-30T00:45:20.595Z,98686.00
2022-08-30T00:45:30.609Z,98684.00
2022-08-30T00:45:40.631Z,98684.00
2022-08-30T00:45:50.639Z,98686.00
2022-08-30T00:46:00.791Z,98684.00
2022-08-30T00:46:10.675Z,98684.00
2022-08-30T00:46:20.694Z,98688.00
2022-08-30T00:46:32.641Z,98686.00
2022-08-30T00:46:40.618Z,98684.00
2022-08-30T00:46:50.606Z,98684.00
2022-08-30T00:47:02.547Z,98684.00
2022-08-30T00:47:12.535Z,98686.00
2022-08-30T00:47:20.575Z,98686.00
2022-08-30T00:47:30.586Z,98686.00
2022-08-30T00:47:42.566Z,98688.00
2022-08-30T00:47:52.526Z,98688.00
2022-08-30T00:48:02.527Z,98688.00
2022-08-30T00:48:11.392Z,98688.00
2022-08-30T00:48:22.516Z,98686.00
2022-08-30T00:48:30.574Z,98688.00
2022-08-30T00:48:41.010Z,98688.00
2022-08-30T00:48:52.537Z,98686.00
2022-08-30T00:49:02.588Z,98684.00
2022-08-30T00:49:10.598Z,98686.00
2022-08-30T00:49:20.599Z,98684.00
2022-08-30T00:49:32.507Z,98684.00
2022-08-30T00:49:42.017Z,98684.00
2022-08-30T00:49:50.574Z,98686.00
2022-08-30T00:50:00.598Z,98684.00
2022-08-30T00:50:10.614Z,98688.00
2022-08-30T00:50:22.036Z,98690.00
2022-08-30T00:50:32.517Z,98688.00
2022-08-30T00:50:40.597Z,98688.00
2022-08-30T00:50:51.378Z,98690.00
2022-08-30T00:51:02.548Z,98690.00
2022-08-30T00:51:12.498Z,98690.00
2022-08-30T00:51:20.548Z,98690.00
2022-08-30T00:51:32.518Z,98690.00
2022-08-30T00:51:42.500Z,98692.00
2022-08-30T00:51:50.576Z,98692.00
2022-08-30T00:52:01.529Z,98690.00
2022-08-30T00:52:10.573Z,98692.00
2022-08-30T00:52:20.554Z,98692.00
2022-08-30T00:52:30.588Z,98692.00
2022-08-30T00:52:40.562Z,98694.00
2022-08-30T00:52:50.557Z,98690.00
2022-08-30T00:53:00.559Z,98694.00
2022-08-30T00:53:10.800Z,98692.00
2022-08-30T00:53:22.478Z,98694.00
2022-08-30T00:53:30.535Z,98694.00
2022-08-30T00:53:42.508Z,98694.00
2022-08-30T00:53:51.356Z,98696.00
2022-08-30T00:54:00.533Z,98696.00
2022-08-30T00:54:12.528Z,98694.00
2022-08-30T00:54:20.539Z,98698.00
2022-08-30T00:54:30.548Z,98698.00
2022-08-30T00:54:40.529Z,98698.00
2022-08-30T00:54:52.493Z,98696.00
2022-08-30T00:55:00.520Z,98698.00
2022-08-30T00:55:11.068Z,98700.00
2022-08-30T00:55:21.461Z,98700.00
2022-08-30T00:55:32.479Z,98698.00
2022-08-30T00:55:42.066Z,98700.00
2022-08-30T00:55:52.469Z,98696.00
2022-08-30T00:56:00.540Z,98700.00
2022-08-30T00:56:10.538Z,98702.00
2022-08-30T00:56:20.568Z,98700.00
2022-08-30T00:56:32.502Z,98700.00
2022-08-30T00:56:42.470Z,98700.00
2022-08-30T00:56:50.510Z,98700.00
2022-08-30T00:57:00.528Z,98698.00
2022-08-30T00:57:12.479Z,98700.00
2022-08-30T00:57:22.461Z,98698.00
2022-08-30T00:57:32.459Z,98696.00
2022-08-30T00:57:41.951Z,98702.00
2022-08-30T00:57:52.450Z,98700.00
2022-08-30T00:58:02.464Z,98698.00
2022-08-30T00:58:10.500Z,98696.00
2022-08-30T00:58:20.539Z,98696.00
2022-08-30T00:58:30.629Z,98698.00
2022-08-30T00:58:40.564Z,98696.00
2022-08-30T00:58:50.499Z,98694.00
2022-08-30T00:59:00.519Z,98698.00
2022-08-30T00:59:10.550Z,98700.00
2022-08-30T00:59:20.518Z,98698.00
2022-08-30T00:59:30.509Z,98698.00
2022-08-30T00:59:40.508Z,98694.00
2022-08-30T00:59:50.509Z,98696.00
2022-08-30T01:00:02.460Z,98700.00
2022-08-30T01:00:12.430Z,98696.00
2022-08-30T01:00:22.450Z,98696.00
2022-08-30T01:00:31.022Z,98698.00
2022-08-30T01:00:40.510Z,98698.00
2022-08-30T01:00:50.519Z,98700.00
2022-08-30T01:01:00.547Z,98698.00
2022-08-30T01:01:12.435Z,98696.00
2022-08-30T01:01:20.536Z,98698.00
2022-08-30T01:01:31.914Z,98700.00
2022-08-30T01:01:40.600Z,98698.00
2022-08-30T01:01:50.626Z,98698.00
2022-08-30T01:02:02.495Z,98698.00
2022-08-30T01:02:11.094Z,98698.00
2022-08-30T01:02:22.464Z,98698.00
2022-08-30T01:02:31.113Z,98698.00
2022-08-30T01:02:42.473Z,98698.00
2022-08-30T01:02:50.637Z,98700.00
2022-08-30T01:03:02.042Z,98700.00
2022-08-30T01:03:11.081Z,98700.00
2022-08-30T01:03:20.461Z,98698.00
2022-08-30T01:03:31.094Z,98700.00
2022-08-30T01:03:41.091Z,98696.00
2022-08-30T01:03:50.459Z,98698.00
2022-08-30T01:04:00.569Z,98700.00
2022-08-30T01:04:11.102Z,98698.00
2022-08-30T01:04:21.110Z,98700.00
2022-08-30T01:04:31.111Z,98700.00
2022-08-30T01:04:41.112Z,98696.00
2022-08-30T01:04:51.119Z,98698.00
2022-08-30T01:05:00.604Z,98698.00
2022-08-30T01:05:10.481Z,98698.00
2022-08-30T01:05:21.922Z,98700.00
2022-08-30T01:05:30.571Z,98698.00
2022-08-30T01:05:40.432Z,98700.00
2022-08-30T01:05:50.431Z,98700.00
2022-08-30T01:06:00.444Z,98702.00
2022-08-30T01:06:10.432Z,98704.00
2022-08-30T01:06:20.460Z,98702.00
2022-08-30T01:06:32.467Z,98700.00
2022-08-30T01:06:40.555Z,98702.00
2022-08-30T01:06:50.522Z,98700.00
2022-08-30T01:07:01.171Z,98700.00
2022-08-30T01:07:10.552Z,98700.00
2022-08-30T01:07:20.792Z,98700.00
2022-08-30T01:07:30.513Z,98700.00
2022-08-30T01:07:40.513Z,98700.00
2022-08-30T01:07:50.501Z,98700.00
2022-08-30T01:08:02.481Z,98700.00
2022-08-30T01:08:12.516Z,98698.00
2022-08-30T01:08:20.545Z,98700.00
2022-08-30T01:08:30.491Z,98698.00
2022-08-30T01:08:40.511Z,98700.00
2022-08-30T01:08:50.512Z,98700.00
2022-08-30T01:09:00.525Z,98698.00
2022-08-30T01:09:12.470Z,98698.00
2022-08-30T01:09:22.477Z,98698.00
2022-08-30T01:09:30.482Z,98700.00
2022-08-30T01:09:42.463Z,98696.00
2022-08-30T01:09:52.433Z,98698.00
2022-08-30T01:10:00.513Z,98700.00
2022-08-30T01:10:10.544Z,98698.00
2022-08-30T01:10:22.423Z,98702.00
2022-08-30T01:10:32.434Z,98700.00
2022-08-30T01:10:42.442Z,98702.00
2022-08-30T01:10:50.514Z,98704.00
2022-08-30T01:11:00.533Z,98702.00
2022-08-30T01:11:12.453Z,98704.00
2022-08-30T01:11:21.464Z,98700.00
2022-08-30T01:11:30.480Z,98704.00
2022-08-30T01:11:42.443Z,98702.00
2022-08-30T01:11:52.225Z,98700.00
2022-08-30T01:12:00.473Z,98704.00
2022-08-30T01:12:11.394Z,98702.00
2022-08-30T01:12:20.483Z,98702.00
2022-08-30T01:12:30.473Z,98704.00
2022-08-30T01:12:42.435Z,98702.00
2022-08-30T01:12:50.470Z,98704.00
2022-08-30T01:13:02.445Z,98702.00
2022-08-30T01:13:11.996Z,98702.00
2022-08-30T01:13:22.414Z,98704.00
2022-08-30T01:13:30.462Z,98706.00
2022-08-30T01:13:42.469Z,98702.00
2022-08-30T01:13:50.445Z,98702.00
2022-08-30T01:14:01.464Z,98704.00
2022-08-30T01:14:10.624Z,98702.00
2022-08-30T01:14:20.475Z,98702.00
2022-08-30T01:14:30.484Z,98702.00
2022-08-30T01:14:40.464Z,98702.00
2022-08-30T01:14:50.482Z,98704.00
2022-08-30T01:15:02.429Z,98702.00
2022-08-30T01:15:12.434Z,98704.00
2022-08-30T01:15:22.395Z,98702.00
2022-08-30T01:15:32.436Z,98702.00
2022-08-30T01:15:42.527Z,98704.00
2022-08-30T01:15:50.769Z,98704.00
2022-08-30T01:16:00.646Z,98704.00
2022-08-30T01:16:12.632Z,98706.00
2022-08-30T01:16:20.619Z,98702.00
2022-08-30T01:16:30.595Z,98706.00
2022-08-30T01:16:40.596Z,98706.00
2022-08-30T01:16:50.573Z,98706.00
2022-08-30T01:17:02.525Z,98700.00
2022-08-30T01:17:10.763Z,98704.00
2022-08-30T01:17:21.319Z,98707.00
2022-08-30T01:17:31.385Z,98706.00
2022-08-30T01:17:42.524Z,98702.00
2022-08-30T01:17:52.504Z,98706.00
2022-08-30T01:18:00.563Z,98704.00
2022-08-30T01:18:10.602Z,98706.00
2022-08-30T01:18:22.235Z,98706.00
2022-08-30T01:18:32.529Z,98706.00
2022-08-30T01:18:40.545Z,98707.00
2022-08-30T01:18:50.574Z,98706.00
2022-08-30T01:19:00.576Z,98704.00
2022-08-30T01:19:10.566Z,98706.00
2022-08-30T01:19:22.525Z,98706.00
2022-08-30T01:19:30.535Z,98709.00
2022-08-30T01:19:40.590Z,98707.00
2022-08-30T01:19:50.595Z,98709.00
2022-08-30T01:20:00.569Z,98707.00
2022-08-30T01:20:11.107Z,98709.00
2022-08-30T01:20:20.575Z,98711.00
2022-08-30T01:20:30.556Z,98709.00
2022-08-30T01:20:40.566Z,98709.00
2022-08-30T01:20:51.317Z,98711.00
2022-08-30T01:21:02.525Z,98707.00
2022-08-30T01:21:12.496Z,98709.00
2022-08-30T01:21:20.528Z,98711.00
2022-08-30T01:21:31.241Z,98709.00
2022-08-30T01:21:41.496Z,98711.00
2022-08-30T01:21:50.559Z,98711.00
2022-08-30T01:22:00.556Z,98709.00
2022-08-30T01:22:11.196Z,98713.00
2022-08-30T01:22:21.204Z,98713.00
2022-08-30T01:22:30.526Z,98711.00
2022-08-30T01:22:40.526Z,98711.00
2022-08-30T01:22:52.490Z,98711.00
2022-08-30T01:23:00.516Z,98709.00
2022-08-30T01:23:10.873Z,98709.00
2022-08-30T01:23:21.271Z,98711.00
2022-08-30T01:23:32.457Z,98711.00
2022-08-30T01:23:40.550Z,98713.00
2022-08-30T01:23:51.269Z,98713.00
2022-08-30T01:24:00.520Z,98713.00
2022-08-30T01:24:10.538Z,98711.00
2022-08-30T01:24:20.546Z,98709.00
2022-08-30T01:24:31.308Z,98709.00
2022-08-30T01:24:40.496Z,98713.00
2022-08-30T01:24:51.316Z,98711.00
2022-08-30T01:25:02.172Z,98711.00
2022-08-30T01:25:11.327Z,98711.00
2022-08-30T01:25:22.490Z,98713.00
2022-08-30T01:25:30.487Z,98711.00
2022-08-30T01:25:40.526Z,98711.00
2022-08-30T01:25:52.472Z,98713.00
2022-08-30T01:26:00.496Z,98713.00
2022-08-30T01:26:10.518Z,98713.00
2022-08-30T01:26:22.120Z,98713.00
2022-08-30T01:26:30.496Z,98717.00
2022-08-30T01:26:42.468Z,98711.00
2022-08-30T01:26:52.450Z,98715.00
2022-08-30T01:27:00.498Z,98715.00
2022-08-30T01:27:10.516Z,98711.00
2022-08-30T01:27:22.459Z,98713.00
2022-08-30T01:27:30.477Z,98713.00
2022-08-30T01:27:40.497Z,98713.00
2022-08-30T01:27:51.417Z,98713.00
2022-08-30T01:28:00.497Z,98719.00
2022-08-30T01:28:12.474Z,98715.00
2022-08-30T01:28:22.429Z,98719.00
2022-08-30T01:28:32.427Z,98719.00
2022-08-30T01:28:42.441Z,98717.00
2022-08-30T01:28:50.469Z,98719.00
2022-08-30T01:29:00.498Z,98719.00
2022-08-30T01:29:12.440Z,98719.00
2022-08-30T01:29:20.509Z,98721.00
2022-08-30T01:29:30.485Z,98719.00
2022-08-30T01:29:42.460Z,98721.00
2022-08-30T01:29:50.561Z,98719.00
2022-08-30T01:30:00.529Z,98723.00
2022-08-30T01:30:10.468Z,98717.00
2022-08-30T01:30:22.429Z,98715.00
2022-08-30T01:30:32.463Z,98719.00
2022-08-30T01:30:40.552Z,98719.00
2022-08-30T01:30:52.487Z,98719.00
2022-08-30T01:31:00.548Z,98719.00
2022-08-30T01:31:10.650Z,98719.00
2022-08-30T01:31:22.489Z,98719.00
2022-08-30T01:31:30.449Z,98721.00
2022-08-30T01:31:40.491Z,98721.00
2022-08-30T01:31:50.468Z,98719.00
2022-08-30T01:32:02.408Z,98719.00
2022-08-30T01:32:10.678Z,98721.00
2022-08-30T01:32:21.301Z,98719.00
2022-08-30T01:32:32.421Z,98721.00
2022-08-30T01:32:42.406Z,98721.00
2022-08-30T01:32:52.391Z,98721.00
2022-08-30T01:33:02.400Z,98719.00
2022-08-30T01:33:10.730Z,98721.00
2022-08-30T01:33:22.440Z,98719.00
2022-08-30T01:34:08.074Z,98721.00
2022-08-30T01:34:17.962Z,98723.00
2022-08-30T01:34:28.103Z,98723.00
2022-08-30T01:34:39.874Z,98723.00
2022-08-30T01:34:49.395Z,98723.00
2022-08-30T01:34:59.875Z,98723.00
2022-08-30T01:35:07.924Z,98723.00
2022-08-30T01:35:17.944Z,98725.00
2022-08-30T01:35:29.904Z,98725.00
2022-08-30T01:35:37.934Z,98725.00
2022-08-30T01:35:49.894Z,98725.00
2022-08-30T01:35:57.926Z,98725.00
2022-08-30T01:36:07.941Z,98727.00
2022-08-30T01:36:19.876Z,98725.00
2022-08-30T01:36:29.891Z,98725.00
2022-08-30T01:36:44.622Z,98723.00
2022-08-30T01:36:50.914Z,98725.00
2022-08-30T01:36:58.955Z,98727.00
2022-08-30T01:37:08.975Z,98727.00
2022-08-30T01:37:20.906Z,98725.00
2022-08-30T01:37:28.945Z,98725.00
2022-08-30T01:37:40.934Z,98727.00
2022-08-30T01:37:50.896Z,98725.00
2022-08-30T01:37:58.934Z,98729.00
2022-08-30T01:38:10.905Z,98727.00
2022-08-30T01:38:18.936Z,98725.00
2022-08-30T01:38:30.918Z,98725.00
2022-08-30T01:38:38.936Z,98727.00
2022-08-30T01:38:50.904Z,98725.00
2022-08-30T01:39:00.874Z,98727.00
2022-08-30T01:39:10.875Z,98725.00
2022-08-30T01:39:18.944Z,98727.00
2022-08-30T01:39:28.996Z,98723.00
2022-08-30T01:39:40.875Z,98725.00
2022-08-30T01:39:48.926Z,98727.00
2022-08-30T01:40:00.921Z,98727.00
2022-08-30T01:40:08.971Z,98727.00
2022-08-30T01:40:18.953Z,98725.00
2022-08-30T01:40:30.899Z,98725.00
2022-08-30T01:40:39.101Z,98725.00
2022-08-30T01:40:48.945Z,98725.00
2022-08-30T01:41:00.906Z,98725.00
2022-08-30T01:41:09.097Z,98727.00
2022-08-30T01:41:20.875Z,98727.00
2022-08-30T01:41:28.957Z,98725.00
2022-08-30T01:41:39.114Z,98727.00
2022-08-30T01:41:49.124Z,98723.00
2022-08-30T01:41:59.137Z,98723.00
2022-08-30T01:42:09.148Z,98725.00
2022-08-30T01:42:20.847Z,98725.00
2022-08-30T01:42:29.156Z,98725.00
2022-08-30T01:42:39.176Z,98725.00
2022-08-30T01:42:49.226Z,98725.00
2022-08-30T01:42:59.185Z,98727.00
2022-08-30T01:43:09.231Z,98727.00
2022-08-30T01:43:18.896Z,98727.00
2022-08-30T01:43:29.207Z,98725.00
2022-08-30T01:43:39.217Z,98725.00
2022-08-30T01:43:49.225Z,98725.00
2022-08-30T01:43:58.906Z,98727.00
2022-08-30T01:44:10.872Z,98723.00
2022-08-30T01:44:20.867Z,98723.00
2022-08-30T01:44:29.262Z,98725.00
2022-08-30T01:44:38.890Z,98723.00
2022-08-30T01:44:50.857Z,98721.00
2022-08-30T01:44:58.898Z,98723.00
2022-08-30T01:45:08.904Z,98725.00
2022-08-30T01:45:18.909Z,98723.00
2022-08-30T01:45:29.717Z,98719.00
2022-08-30T01:45:38.977Z,98721.00
2022-08-30T01:45:50.934Z,98723.00
2022-08-30T01:45:58.958Z,98721.00
2022-08-30T01:46:10.908Z,98723.00
2022-08-30T01:46:19.526Z,98719.00
2022-08-30T01:46:30.886Z,98719.00
2022-08-30T01:46:40.827Z,98719.00
2022-08-30T01:46:50.839Z,98723.00
2022-08-30T01:47:00.837Z,98721.00
2022-08-30T01:47:09.815Z,98719.00
2022-08-30T01:47:18.901Z,98719.00
2022-08-30T01:47:28.887Z,98719.00
2022-08-30T01:47:40.926Z,98717.00
2022-08-30T01:47:50.822Z,98719.00
2022-08-30T01:47:59.868Z,98717.00
2022-08-30T01:48:10.817Z,98721.00
2022-08-30T01:48:18.879Z,98719.00
2022-08-30T01:48:31.071Z,98719.00
2022-08-30T01:48:40.969Z,98717.00
2022-08-30T01:48:53.019Z,98721.00
2022-08-30T01:48:59.018Z,98717.00
2022-08-30T01:49:10.978Z,98723.00
2022-08-30T01:49:27.797Z,98717.00
2022-08-30T01:49:30.588Z,98721.00
2022-08-30T01:49:40.808Z,98723.00
2022-08-30T01:49:52.507Z,98721.00
2022-08-30T01:50:01.079Z,98721.00
2022-08-30T01:50:10.602Z,98721.00
2022-08-30T01:50:20.599Z,98719.00
2022-08-30T01:50:30.570Z,98719.00
2022-08-30T01:50:40.589Z,98715.00
2022-08-30T01:50:52.533Z,98719.00
2022-08-30T01:51:00.580Z,98721.00
2022-08-30T01:51:10.577Z,98721.00
2022-08-30T01:51:22.528Z,98719.00
2022-08-30T01:51:30.617Z,98717.00
2022-08-30T01:51:40.559Z,98719.00
2022-08-30T01:51:50.569Z,98721.00
2022-08-30T01:52:01.538Z,98719.00
2022-08-30T01:52:12.509Z,98719.00
2022-08-30T01:52:20.568Z,98717.00
2022-08-30T01:52:30.559Z,98719.00
2022-08-30T01:52:40.566Z,98719.00
2022-08-30T01:52:50.596Z,98719.00
2022-08-30T01:53:00.558Z,98719.00
2022-08-30T01:53:13.204Z,98719.00
2022-08-30T01:53:20.549Z,98719.00
2022-08-30T01:53:32.503Z,98719.00
2022-08-30T01:53:42.500Z,98717.00
2022-08-30T01:53:50.529Z,98719.00
2022-08-30T01:54:02.488Z,98721.00
2022-08-30T01:54:10.642Z,98721.00
2022-08-30T01:54:20.533Z,98719.00
2022-08-30T01:54:33.224Z,98717.00
2022-08-30T01:54:42.930Z,98719.00
2022-08-30T01:54:53.583Z,98719.00
2022-08-30T01:55:02.103Z,98719.00
2022-08-30T01:55:14.077Z,98721.00
2022-08-30T01:55:22.108Z,98719.00
2022-08-30T01:55:32.120Z,98719.00
2022-08-30T01:55:43.090Z,98719.00
2022-08-30T01:55:54.049Z,98719.00
2022-08-30T01:56:02.109Z,98719.00
2022-08-30T01:56:12.081Z,98717.00
2022-08-30T01:56:22.110Z,98717.00
2022-08-30T01:56:32.089Z,98719.00
2022-08-30T01:56:42.114Z,98721.00
2022-08-30T01:56:54.040Z,98719.00
2022-08-30T01:57:02.079Z,98715.00
2022-08-30T01:57:12.090Z,98715.00
2022-08-30T01:57:22.202Z,98715.00
2022-08-30T01:57:34.020Z,98719.00
2022-08-30T01:57:42.080Z,98715.00
2022-08-30T01:57:52.141Z,98717.00
2022-08-30T01:58:02.090Z,98717.00
2022-08-30T01:58:12.081Z,98715.00